createdAt,value
2018-11-11T00:01:40.370Z,9.88
2018-11-11T00:06:43.615Z,9.81
2018-11-11T00:11:46.855Z,9.86
2018-11-11T00:16:50.092Z,9.89
2018-11-11T00:21:53.383Z,9.88
2018-11-11T00:26:56.582Z,9.88
2018-11-11T00:31:59.818Z,9.88
2018-11-11T00:37:03.133Z,9.82
2018-11-11T00:42:06.666Z,9.84
2018-11-11T00:47:09.910Z,9.86
2018-11-11T00:52:13.162Z,9.82
2018-11-11T00:57:16.359Z,9.74
2018-11-11T01:02:19.716Z,9.75
2018-11-11T01:07:22.928Z,9.81
2018-11-11T01:12:26.145Z,9.73
2018-11-11T01:17:29.405Z,9.61
2018-11-11T01:22:32.607Z,9.54
2018-11-11T01:27:35.855Z,9.34
2018-11-11T01:32:39.150Z,9.20
2018-11-11T01:37:42.863Z,9.19
2018-11-11T01:42:46.061Z,9.02
2018-11-11T01:47:49.290Z,8.98
2018-11-11T01:52:52.492Z,8.96
2018-11-11T01:57:55.745Z,9.12
2018-11-11T02:02:58.967Z,8.93
2018-11-11T02:08:02.193Z,8.82
2018-11-11T02:13:05.721Z,9.01
2018-11-11T02:18:08.916Z,8.87
2018-11-11T02:23:12.143Z,8.85
2018-11-11T02:28:15.355Z,8.91
2018-11-11T02:33:19.773Z,8.96
2018-11-11T02:38:23.037Z,9.10
2018-11-11T02:43:26.269Z,9.03
2018-11-11T02:48:29.471Z,9.09
2018-11-11T02:53:32.678Z,9.15
2018-11-11T02:58:35.906Z,9.16
2018-11-11T03:03:39.098Z,9.15
2018-11-11T03:08:42.277Z,9.12
2018-11-11T03:13:45.431Z,9.14
2018-11-11T03:18:48.590Z,9.06
2018-11-11T03:23:51.764Z,9.11
2018-11-11T03:28:54.952Z,9.12
2018-11-11T03:33:58.121Z,9.05
2018-11-11T03:39:01.309Z,9.07
2018-11-11T03:44:21.119Z,9.05
2018-11-11T03:49:24.307Z,9.05
2018-11-11T03:54:27.506Z,8.92
2018-11-11T03:59:30.680Z,8.88
2018-11-11T04:04:34.151Z,8.94
2018-11-11T04:09:37.315Z,9.09
2018-11-11T04:14:40.502Z,9.08
2018-11-11T04:19:43.683Z,9.05
2018-11-11T04:24:48.726Z,9.08
2018-11-11T04:29:51.904Z,9.26
2018-11-11T04:34:55.079Z,9.10
2018-11-11T04:39:58.279Z,9.13
2018-11-11T04:45:01.446Z,9.23
2018-11-11T04:50:06.263Z,9.16
2018-11-11T04:55:10.111Z,9.05
2018-11-11T05:00:14.264Z,9.07
2018-11-11T05:05:17.436Z,9.07
2018-11-11T05:10:20.623Z,8.97
2018-11-11T05:15:23.825Z,8.92
2018-11-11T05:20:26.999Z,8.82
2018-11-11T05:25:30.195Z,8.85
2018-11-11T05:30:33.404Z,8.86
2018-11-11T05:35:36.597Z,8.91
2018-11-11T05:40:39.775Z,9.00
2018-11-11T05:45:42.942Z,9.05
2018-11-11T05:50:46.114Z,9.06
2018-11-11T05:55:49.346Z,9.13
2018-11-11T06:00:52.501Z,9.18
2018-11-11T06:05:55.703Z,9.35
2018-11-11T06:10:58.870Z,9.51
2018-11-11T06:16:02.050Z,9.87
2018-11-11T06:21:05.598Z,9.65
2018-11-11T06:26:09.300Z,9.43
2018-11-11T06:31:12.501Z,9.38
2018-11-11T06:36:15.703Z,9.50
2018-11-11T06:41:18.918Z,9.38
2018-11-11T06:46:22.088Z,9.43
2018-11-11T06:51:25.316Z,9.51
2018-11-11T06:56:28.647Z,9.61
2018-11-11T07:01:31.854Z,9.75
2018-11-11T07:06:35.106Z,9.81
2018-11-11T07:11:38.326Z,9.85
2018-11-11T07:16:41.550Z,9.95
2018-11-11T07:21:44.785Z,9.85
2018-11-11T07:26:47.963Z,9.79
2018-11-11T07:31:51.263Z,9.90
2018-11-11T07:36:54.568Z,9.81
2018-11-11T07:41:57.912Z,9.76
2018-11-11T07:47:01.163Z,9.90
2018-11-11T07:52:04.814Z,10.01
2018-11-11T07:57:08.017Z,10.18
2018-11-11T08:02:11.317Z,10.34
2018-11-11T08:07:14.633Z,10.42
2018-11-11T08:12:17.944Z,10.46
2018-11-11T08:17:21.265Z,10.68
2018-11-11T08:22:24.656Z,10.87
2018-11-11T08:27:28.011Z,11.03
2018-11-11T08:32:31.307Z,11.09
2018-11-11T08:37:34.602Z,11.21
2018-11-11T08:42:37.887Z,11.21
2018-11-11T08:47:41.762Z,11.32
2018-11-11T08:52:45.144Z,11.38
2018-11-11T08:57:48.452Z,11.56
2018-11-11T09:02:51.699Z,11.73
2018-11-11T09:07:54.978Z,11.84
2018-11-11T09:12:58.267Z,12.07
2018-11-11T09:18:01.547Z,12.23
2018-11-11T09:23:05.060Z,12.39
2018-11-11T09:28:08.320Z,12.43
2018-11-11T09:33:11.548Z,12.40
2018-11-11T09:38:14.815Z,12.44
2018-11-11T09:43:18.108Z,12.46
2018-11-11T09:48:21.396Z,12.52
2018-11-11T09:53:25.131Z,12.75
2018-11-11T10:04:54.308Z,12.83
2018-11-11T10:11:03.844Z,12.96
2018-11-11T10:16:13.742Z,12.91
2018-11-11T10:21:26.571Z,12.91
2018-11-11T10:26:41.135Z,12.93
2018-11-11T10:31:51.200Z,12.96
2018-11-11T10:36:57.650Z,13.03
2018-11-11T10:42:17.320Z,13.17
2018-11-11T10:47:24.159Z,13.12
2018-11-11T10:52:27.491Z,13.27
2018-11-11T10:57:30.822Z,13.35
2018-11-11T11:02:39.832Z,13.46
2018-11-11T11:07:43.273Z,13.51
2018-11-11T11:12:46.903Z,13.64
2018-11-11T11:17:50.199Z,13.67
2018-11-11T11:22:53.620Z,13.77
2018-11-11T11:27:56.934Z,13.94
2018-11-11T11:33:00.321Z,14.07
2018-11-11T11:38:03.795Z,14.14
2018-11-11T11:43:07.089Z,14.15
2018-11-11T11:48:10.372Z,14.35
2018-11-11T11:53:13.662Z,14.21
2018-11-11T11:58:20.116Z,14.16
2018-11-11T12:03:23.486Z,14.21
2018-11-11T12:08:26.935Z,14.28
2018-11-11T12:13:30.132Z,14.37
2018-11-11T12:18:33.516Z,14.59
2018-11-11T12:23:36.867Z,14.69
2018-11-11T12:28:40.166Z,14.80
2018-11-11T12:33:43.487Z,14.81
2018-11-11T12:38:46.816Z,14.63
2018-11-11T12:43:50.196Z,14.47
2018-11-11T12:48:53.610Z,14.45
2018-11-11T12:53:57.027Z,14.38
2018-11-11T12:59:00.392Z,14.41
2018-11-11T13:04:03.799Z,14.46
2018-11-11T13:09:09.485Z,14.45
2018-11-11T13:14:12.803Z,14.46
2018-11-11T13:19:16.113Z,14.53
2018-11-11T13:24:19.515Z,14.60
2018-11-11T13:29:22.904Z,14.67
2018-11-11T13:34:26.264Z,14.67
2018-11-11T13:39:29.628Z,14.69
2018-11-11T13:44:33.008Z,14.64
2018-11-11T13:49:36.325Z,14.64
2018-11-11T13:54:39.617Z,14.60
2018-11-11T13:59:42.942Z,14.55
2018-11-11T14:04:46.869Z,14.53
2018-11-11T14:09:50.173Z,14.50
2018-11-11T14:14:53.476Z,14.52
2018-11-11T14:19:56.872Z,14.57
2018-11-11T14:25:00.144Z,14.36
2018-11-11T14:30:04.447Z,14.29
2018-11-11T14:35:08.494Z,14.25
2018-11-11T14:40:16.722Z,14.24
2018-11-11T14:45:20.806Z,14.18
2018-11-11T14:50:24.738Z,14.16
2018-11-11T14:55:28.872Z,14.13
2018-11-11T15:00:33.308Z,14.24
2018-11-11T15:05:36.655Z,14.29
2018-11-11T15:10:39.965Z,14.19
2018-11-11T15:15:43.427Z,14.12
2018-11-11T15:20:46.954Z,13.91
2018-11-11T15:25:50.054Z,13.87
2018-11-11T15:30:53.434Z,13.59
2018-11-11T15:35:56.791Z,13.50
2018-11-11T15:40:59.985Z,13.31
2018-11-11T15:46:03.347Z,13.11
2018-11-11T15:51:06.745Z,13.00
2018-11-11T15:56:10.145Z,13.01
2018-11-11T16:01:13.517Z,12.89
2018-11-11T16:06:16.946Z,13.08
2018-11-11T16:11:20.279Z,12.72
2018-11-11T16:16:23.606Z,12.52
2018-11-11T16:21:26.963Z,12.38
2018-11-11T16:26:30.294Z,12.23
2018-11-11T16:31:33.613Z,12.16
2018-11-11T16:36:37.131Z,11.98
2018-11-11T16:41:41.143Z,11.83
2018-11-11T16:46:44.476Z,11.81
2018-11-11T16:51:47.788Z,11.81
2018-11-11T16:56:51.090Z,11.86
2018-11-11T17:01:54.548Z,11.82
2018-11-11T17:06:58.022Z,11.79
2018-11-11T17:12:01.476Z,11.79
2018-11-11T17:17:05.393Z,11.86
2018-11-11T17:22:08.876Z,11.89
2018-11-11T17:27:12.119Z,11.91
2018-11-11T17:32:15.486Z,11.85
2018-11-11T17:37:18.806Z,11.90
2018-11-11T17:42:22.247Z,12.00
2018-11-11T17:47:25.590Z,11.68
2018-11-11T17:52:28.900Z,11.70
2018-11-11T17:57:32.285Z,11.69
2018-11-11T18:02:35.696Z,11.77
2018-11-11T18:07:39.004Z,11.80
2018-11-11T18:12:42.443Z,11.83
2018-11-11T18:17:45.861Z,11.90
2018-11-11T18:22:50.192Z,11.80
2018-11-11T18:27:53.642Z,11.86
2018-11-11T18:32:56.978Z,11.78
2018-11-11T18:38:00.298Z,11.85
2018-11-11T18:43:03.900Z,11.95
2018-11-11T18:48:07.390Z,11.84
2018-11-11T18:53:10.809Z,11.78
2018-11-11T18:58:14.172Z,11.69
2018-11-11T19:03:17.524Z,11.71
2018-11-11T19:08:20.931Z,11.71
2018-11-11T19:13:24.349Z,11.66
2018-11-11T19:18:27.694Z,11.72
2018-11-11T19:23:31.075Z,11.70
2018-11-11T19:28:34.460Z,11.68
2018-11-11T19:33:37.919Z,11.66
2018-11-11T19:38:41.240Z,11.69
2018-11-11T19:43:44.560Z,11.67
2018-11-11T19:48:48.024Z,11.65
2018-11-11T19:53:51.486Z,11.73
2018-11-11T19:58:54.965Z,11.54
2018-11-11T20:03:58.548Z,11.43
2018-11-11T20:09:02.002Z,11.61
2018-11-11T20:14:06.327Z,11.61
2018-11-11T20:19:09.910Z,11.78
2018-11-11T20:24:13.382Z,11.86
2018-11-11T20:29:16.750Z,12.11
2018-11-11T20:34:20.145Z,11.93
2018-11-11T20:39:23.543Z,12.00
2018-11-11T20:44:26.970Z,11.89
2018-11-11T20:49:30.293Z,11.85
2018-11-11T20:54:33.723Z,11.81
2018-11-11T20:59:37.109Z,11.86
2018-11-11T21:04:40.495Z,12.07
2018-11-11T21:09:43.952Z,12.18
2018-11-11T21:14:47.366Z,12.35
2018-11-11T21:19:50.742Z,12.28
2018-11-11T21:24:54.065Z,12.28
2018-11-11T21:29:57.375Z,12.25
2018-11-11T21:35:00.772Z,12.32
2018-11-11T21:40:05.367Z,12.29
2018-11-11T21:45:10.756Z,12.23
2018-11-11T21:50:22.154Z,12.14
2018-11-11T21:55:25.528Z,12.07
2018-11-11T22:00:28.870Z,12.06
2018-11-11T22:05:32.358Z,12.01
2018-11-11T22:10:35.588Z,11.93
2018-11-11T22:15:38.944Z,11.88
2018-11-11T22:20:42.179Z,11.80
2018-11-11T22:25:48.492Z,11.82
2018-11-11T22:30:51.783Z,11.64
2018-11-11T22:35:55.117Z,11.63
2018-11-11T22:40:58.394Z,11.67
2018-11-11T22:46:01.682Z,11.64
2018-11-11T22:51:05.051Z,11.64
2018-11-11T22:56:08.408Z,11.50
2018-11-11T23:01:17.326Z,11.51
2018-11-11T23:06:20.496Z,11.49
2018-11-11T23:11:23.783Z,11.36
2018-11-11T23:16:27.014Z,11.28
2018-11-11T23:21:30.260Z,11.19
2018-11-11T23:26:33.550Z,11.00
2018-11-11T23:31:36.911Z,10.87
2018-11-11T23:36:40.179Z,10.96
2018-11-11T23:41:43.414Z,10.73
2018-11-11T23:46:46.610Z,10.80
2018-11-11T23:51:49.836Z,10.55
2018-11-11T23:56:53.058Z,10.45
